createdAt,value
2018-09-21T00:00:35.000Z,99647
2018-09-21T00:01:35.000Z,99650
2018-09-21T00:03:19.000Z,99644
2018-09-21T00:04:35.000Z,99638
2018-09-21T00:06:35.000Z,99639
2018-09-21T00:07:35.000Z,99639
2018-09-21T00:09:35.000Z,99636
2018-09-21T00:10:35.000Z,99637
2018-09-21T00:12:35.000Z,99627
2018-09-21T00:13:35.000Z,99624
2018-09-21T00:15:35.000Z,99618
2018-09-21T00:16:35.000Z,99621
2018-09-21T00:18:35.000Z,99624
2018-09-21T00:19:35.000Z,99624
2018-09-21T00:21:35.000Z,99612
2018-09-21T00:23:35.000Z,99604
2018-09-21T00:25:35.000Z,99607
2018-09-21T00:27:35.000Z,99600
2018-09-21T00:29:35.000Z,99600
2018-09-21T00:30:35.000Z,99601
2018-09-21T00:32:19.000Z,99597
2018-09-21T00:33:35.000Z,99597
2018-09-21T00:35:19.000Z,99598
2018-09-21T00:36:35.000Z,99595
2018-09-21T00:38:35.000Z,99596
2018-09-21T00:40:35.000Z,99592
2018-09-21T00:41:35.000Z,99582
2018-09-21T00:43:35.000Z,99589
2018-09-21T00:45:05.000Z,99584
2018-09-21T00:46:35.000Z,99591
2018-09-21T00:48:20.000Z,99579
2018-09-21T00:49:35.000Z,99584
2018-09-21T00:51:35.000Z,99586
2018-09-21T00:53:35.000Z,99579
2018-09-21T00:55:35.000Z,99576
2018-09-21T00:57:35.000Z,99580
2018-09-21T00:58:35.000Z,99571
2018-09-21T01:00:35.000Z,99572
2018-09-21T01:01:35.000Z,99567
2018-09-21T01:03:35.000Z,99565
2018-09-21T01:05:05.000Z,99563
2018-09-21T01:06:35.000Z,99565
2018-09-21T01:08:35.000Z,99555
2018-09-21T01:10:35.000Z,99554
2018-09-21T01:11:35.000Z,99560
2018-09-21T01:13:20.000Z,99548
2018-09-21T01:14:35.000Z,99555
2018-09-21T01:16:35.000Z,99546
2018-09-21T01:18:35.000Z,99551
2018-09-21T01:20:35.000Z,99540
2018-09-21T01:21:35.000Z,99536
2018-09-21T01:23:35.000Z,99517
2018-09-21T01:25:35.000Z,99523
2018-09-21T01:27:35.000Z,99522
2018-09-21T01:29:35.000Z,99515
2018-09-21T01:30:35.000Z,99526
2018-09-21T01:32:35.000Z,99520
2018-09-21T01:33:35.000Z,99510
2018-09-21T01:35:35.000Z,99520
2018-09-21T01:37:35.000Z,99522
2018-09-21T01:39:35.000Z,99507
2018-09-21T01:41:35.000Z,99510
2018-09-21T01:43:35.000Z,99507
2018-09-21T01:45:35.000Z,99504
2018-09-21T01:46:35.000Z,99507
2018-09-21T01:48:35.000Z,99502
2018-09-21T01:50:35.000Z,99498
2018-09-21T01:51:35.000Z,99499
2018-09-21T01:52:35.000Z,99505
2018-09-21T01:54:35.000Z,99494
2018-09-21T01:56:20.000Z,99487
2018-09-21T01:57:35.000Z,99484
2018-09-21T01:59:35.000Z,99478
2018-09-21T02:00:35.000Z,99483
2018-09-21T02:02:35.000Z,99476
2018-09-21T02:04:35.000Z,99468
2018-09-21T02:05:35.000Z,99461
2018-09-21T02:06:35.000Z,99465
2018-09-21T02:08:35.000Z,99469
2018-09-21T02:10:35.000Z,99464
2018-09-21T02:12:20.000Z,99470
2018-09-21T02:13:35.000Z,99456
2018-09-21T02:14:35.000Z,99460
2018-09-21T02:16:20.000Z,99450
2018-09-21T02:17:20.000Z,99444
2018-09-21T02:18:35.000Z,99455
2018-09-21T02:20:05.000Z,99444
2018-09-21T02:21:35.000Z,99450
2018-09-21T02:23:35.000Z,99449
2018-09-21T02:24:35.000Z,99438
2018-09-21T02:26:35.000Z,99438
2018-09-21T02:28:35.000Z,99443
2018-09-21T02:30:35.000Z,99436
2018-09-21T02:31:35.000Z,99428
2018-09-21T02:33:35.000Z,99425
2018-09-21T02:35:35.000Z,99435
2018-09-21T02:36:35.000Z,99435
2018-09-21T02:38:35.000Z,99434
2018-09-21T02:40:35.000Z,99413
2018-09-21T02:42:35.000Z,99410
2018-09-21T02:44:35.000Z,99411
2018-09-21T02:45:35.000Z,99405
2018-09-21T02:46:35.000Z,99397
2018-09-21T02:47:35.000Z,99388
2018-09-21T02:49:35.000Z,99386
2018-09-21T02:51:35.000Z,99372
2018-09-21T02:53:35.000Z,99370
2018-09-21T02:55:35.000Z,99364
2018-09-21T02:56:35.000Z,99362
2018-09-21T02:58:20.000Z,99374
2018-09-21T02:59:35.000Z,99375
2018-09-21T03:01:35.000Z,99356
2018-09-21T03:03:35.000Z,99348
2018-09-21T03:04:35.000Z,99350
2018-09-21T03:06:35.000Z,99344
2018-09-21T03:07:35.000Z,99341
2018-09-21T03:09:20.000Z,99339
2018-09-21T03:10:35.000Z,99337
2018-09-21T03:11:35.000Z,99329
2018-09-21T03:12:35.000Z,99325
2018-09-21T03:14:20.000Z,99326
2018-09-21T03:15:20.000Z,99334
2018-09-21T03:16:35.000Z,99323
2018-09-21T03:18:35.000Z,99322
2018-09-21T03:20:35.000Z,99319
2018-09-21T03:22:35.000Z,99321
2018-09-21T03:23:35.000Z,99320
2018-09-21T03:24:35.000Z,99318
2018-09-21T03:26:35.000Z,99317
2018-09-21T03:28:35.000Z,99307
2018-09-21T03:29:35.000Z,99300
2018-09-21T03:31:35.000Z,99291
2018-09-21T03:33:35.000Z,99289
2018-09-21T03:34:35.000Z,99286
2018-09-21T03:36:35.000Z,99287
2018-09-21T03:38:35.000Z,99272
2018-09-21T03:39:35.000Z,99272
2018-09-21T03:41:35.000Z,99266
2018-09-21T03:43:20.000Z,99254
2018-09-21T03:44:35.000Z,99252
2018-09-21T03:45:35.000Z,99248
2018-09-21T03:47:35.000Z,99252
2018-09-21T03:49:35.000Z,99234
2018-09-21T03:51:35.000Z,99239
2018-09-21T03:53:35.000Z,99230
2018-09-21T03:54:35.000Z,99237
2018-09-21T03:56:35.000Z,99226
2018-09-21T03:58:35.000Z,99217
2018-09-21T04:00:35.000Z,99221
2018-09-21T04:02:35.000Z,99212
2018-09-21T04:03:35.000Z,99203
2018-09-21T04:05:35.000Z,99212
2018-09-21T04:07:35.000Z,99203
2018-09-21T04:09:35.000Z,99197
2018-09-21T04:10:35.000Z,99208
2018-09-21T04:12:35.000Z,99201
2018-09-21T04:14:35.000Z,99193
2018-09-21T04:16:35.000Z,99187
2018-09-21T04:17:35.000Z,99186
2018-09-21T04:19:36.000Z,99185
2018-09-21T04:21:35.000Z,99183
2018-09-21T04:23:35.000Z,99191
2018-09-21T04:24:35.000Z,99187
2018-09-21T04:25:35.000Z,99202
2018-09-21T04:27:35.000Z,99182
2018-09-21T04:28:35.000Z,99187
2018-09-21T04:29:35.000Z,99187
2018-09-21T04:31:35.000Z,99181
2018-09-21T04:33:20.000Z,99170
2018-09-21T04:34:35.000Z,99186
2018-09-21T04:35:35.000Z,99173
2018-09-21T04:37:35.000Z,99177
2018-09-21T04:39:20.000Z,99188
2018-09-21T04:41:35.000Z,99185
2018-09-21T04:43:35.000Z,99168
2018-09-21T04:45:35.000Z,99171
2018-09-21T04:46:35.000Z,99170
2018-09-21T04:48:20.000Z,99172
2018-09-21T04:49:35.000Z,99169
2018-09-21T04:51:35.000Z,99183
2018-09-21T04:53:20.000Z,99177
2018-09-21T04:54:35.000Z,99166
2018-09-21T04:55:35.000Z,99183
2018-09-21T04:57:35.000Z,99159
2018-09-21T04:59:20.000Z,99172
2018-09-21T05:00:35.000Z,99169
2018-09-21T05:02:35.000Z,99163
2018-09-21T05:04:05.000Z,99148
2018-09-21T05:05:35.000Z,99143
2018-09-21T05:06:35.000Z,99153
2018-09-21T05:08:35.000Z,99140
2018-09-21T05:10:35.000Z,99171
2018-09-21T05:12:35.000Z,99167
2018-09-21T05:13:35.000Z,99140
2018-09-21T05:15:35.000Z,99129
2018-09-21T05:17:35.000Z,99135
2018-09-21T05:28:36.000Z,99136
2018-09-21T05:30:22.000Z,99140
2018-09-21T05:32:22.000Z,99133
2018-09-21T05:34:22.000Z,99140
2018-09-21T05:36:22.000Z,99164
2018-09-21T05:37:22.000Z,99145
2018-09-21T05:39:22.000Z,99143
2018-09-21T05:41:22.000Z,99140
2018-09-21T05:43:22.000Z,99129
2018-09-21T05:45:22.000Z,99134
2018-09-21T05:46:22.000Z,99158
2018-09-21T05:48:07.000Z,99124
2018-09-21T05:50:22.000Z,99133
2018-09-21T05:52:22.000Z,99122
2018-09-21T05:54:22.000Z,99128
2018-09-21T05:55:22.000Z,99129
2018-09-21T05:57:22.000Z,99136
2018-09-21T05:59:22.000Z,99102
2018-09-21T06:00:22.000Z,99122
2018-09-21T06:01:22.000Z,99098
2018-09-21T06:03:07.000Z,99075
2018-09-21T06:05:22.000Z,99092
2018-09-21T06:07:22.000Z,99110
2018-09-21T06:09:22.000Z,99126
2018-09-21T06:10:22.000Z,99101
2018-09-21T06:12:22.000Z,99104
2018-09-21T06:13:22.000Z,99111
2018-09-21T06:15:22.000Z,99117
2018-09-21T06:17:22.000Z,99108
2018-09-21T06:19:22.000Z,99111
2018-09-21T06:21:06.000Z,99115
2018-09-21T06:22:07.000Z,99103
2018-09-21T06:24:22.000Z,99102
2018-09-21T06:26:22.000Z,99095
2018-09-21T06:28:22.000Z,99096
2018-09-21T06:29:22.000Z,99103
2018-09-21T06:31:22.000Z,99109
2018-09-21T06:33:06.000Z,99110
2018-09-21T06:34:22.000Z,99084
2018-09-21T06:35:22.000Z,99160
2018-09-21T06:37:07.000Z,99101
2018-09-21T06:38:22.000Z,99104
2018-09-21T06:40:06.000Z,99090
2018-09-21T06:41:22.000Z,99125
2018-09-21T06:43:22.000Z,99099
2018-09-21T06:44:22.000Z,99104
2018-09-21T06:45:51.000Z,99095
2018-09-21T06:47:22.000Z,99106
2018-09-21T06:49:22.000Z,99119
2018-09-21T06:51:22.000Z,99139
2018-09-21T06:52:22.000Z,99123
2018-09-21T06:54:22.000Z,99126
2018-09-21T06:56:22.000Z,99124
2018-09-21T06:58:22.000Z,99172
2018-09-21T07:00:22.000Z,99123
2018-09-21T07:02:22.000Z,99128
2018-09-21T07:03:22.000Z,99120
2018-09-21T07:04:22.000Z,99118
2018-09-21T07:06:22.000Z,99126
2018-09-21T07:08:22.000Z,99097
2018-09-21T07:09:22.000Z,99118
2018-09-21T07:11:22.000Z,99149
2018-09-21T07:13:22.000Z,99101
2018-09-21T07:24:08.000Z,99141
2018-09-21T07:25:38.000Z,99135
2018-09-21T07:26:53.000Z,99149
2018-09-21T07:27:53.000Z,99131
2018-09-21T07:29:53.000Z,99156
2018-09-21T07:30:53.000Z,99147
2018-09-21T07:32:53.000Z,99141
2018-09-21T07:33:53.000Z,99151
2018-09-21T07:35:53.000Z,99136
2018-09-21T07:36:53.000Z,99144
2018-09-21T07:38:53.000Z,99160
2018-09-21T07:39:53.000Z,99163
2018-09-21T07:40:53.000Z,99171
2018-09-21T07:42:53.000Z,99141
2018-09-21T07:43:53.000Z,99132
2018-09-21T07:44:54.000Z,99160
2018-09-21T07:46:53.000Z,99181
2018-09-21T07:48:53.000Z,99163
2018-09-21T07:50:53.000Z,99164
2018-09-21T07:52:54.000Z,99157
2018-09-21T07:54:53.000Z,99163
2018-09-21T07:56:24.000Z,99148
2018-09-21T07:58:53.000Z,99168
2018-09-21T08:00:38.000Z,99147
2018-09-21T08:01:53.000Z,99163
2018-09-21T08:03:53.000Z,99181
2018-09-21T08:04:54.000Z,99163
2018-09-21T08:06:54.000Z,99167
2018-09-21T08:08:54.000Z,99152
2018-09-21T08:09:54.000Z,99170
2018-09-21T08:11:54.000Z,99123
2018-09-21T08:12:54.000Z,99106
2018-09-21T08:14:54.000Z,99111
2018-09-21T08:15:54.000Z,99115
2018-09-21T08:16:54.000Z,99126
2018-09-21T08:18:54.000Z,99149
2018-09-21T08:20:38.000Z,99142
2018-09-21T08:21:54.000Z,99136
2018-09-21T08:32:54.000Z,99126
2018-09-21T08:45:26.000Z,99104
2018-09-21T08:47:11.000Z,99101
2018-09-21T08:56:58.000Z,99139
2018-09-21T08:57:58.000Z,99148
2018-09-21T08:59:58.000Z,99184
2018-09-21T09:01:58.000Z,99209
2018-09-21T09:02:58.000Z,99210
2018-09-21T09:04:58.000Z,99224
2018-09-21T09:06:58.000Z,99229
2018-09-21T09:08:58.000Z,99253
2018-09-21T09:10:58.000Z,99292
2018-09-21T09:12:57.000Z,99268
2018-09-21T09:13:57.000Z,99276
2018-09-21T09:15:57.000Z,99291
2018-09-21T09:17:58.000Z,99322
2018-09-21T09:19:57.000Z,99338
2018-09-21T09:21:57.000Z,99346
2018-09-21T09:23:42.000Z,99347
2018-09-21T09:25:58.000Z,99362
2018-09-21T09:27:57.000Z,99378
2018-09-21T09:29:57.000Z,99394
2018-09-21T09:30:58.000Z,99387
2018-09-21T09:32:57.000Z,99397
2018-09-21T09:34:57.000Z,99394
2018-09-21T09:35:58.000Z,99409
2018-09-21T09:37:58.000Z,99426
2018-09-21T09:39:57.000Z,99426
2018-09-21T09:41:58.000Z,99429
2018-09-21T09:43:58.000Z,99429
2018-09-21T09:45:57.000Z,99433
2018-09-21T09:47:42.000Z,99439
2018-09-21T09:48:57.000Z,99428
2018-09-21T09:50:57.000Z,99454
2018-09-21T09:51:58.000Z,99443
2018-09-21T09:53:42.000Z,99442
2018-09-21T09:54:57.000Z,99448
2018-09-21T09:55:58.000Z,99461
2018-09-21T09:57:42.000Z,99435
2018-09-21T09:58:57.000Z,99439
2018-09-21T09:59:57.000Z,99429
2018-09-21T10:01:58.000Z,99438
2018-09-21T10:03:58.000Z,99445
2018-09-21T10:05:57.000Z,99463
2018-09-21T10:06:58.000Z,99466
2018-09-21T10:08:58.000Z,99468
2018-09-21T10:10:43.000Z,99466
2018-09-21T10:11:58.000Z,99478
2018-09-21T10:13:58.000Z,99486
2018-09-21T10:15:43.000Z,99491
2018-09-21T10:16:58.000Z,99477
2018-09-21T10:17:58.000Z,99472
2018-09-21T10:19:58.000Z,99485
2018-09-21T10:21:58.000Z,99487
2018-09-21T10:22:58.000Z,99479
2018-09-21T10:24:58.000Z,99479
2018-09-21T10:25:58.000Z,99479
2018-09-21T11:02:46.000Z,99485
2018-09-21T11:04:32.000Z,99488
2018-09-21T11:06:32.000Z,99480
2018-09-21T11:07:32.000Z,99479
2018-09-21T11:09:32.000Z,99496
2018-09-21T11:11:32.000Z,99469
2018-09-21T11:13:16.000Z,99475
2018-09-21T11:14:32.000Z,99476
2018-09-21T11:16:32.000Z,99495
2018-09-21T11:18:16.000Z,99493
2018-09-21T11:19:32.000Z,99483
2018-09-21T11:20:32.000Z,99486
2018-09-21T11:21:32.000Z,99493
2018-09-21T11:23:16.000Z,99483
2018-09-21T11:24:32.000Z,99492
2018-09-21T11:26:16.000Z,99495
2018-09-21T11:27:32.000Z,99486
2018-09-21T11:28:32.000Z,99493
2018-09-21T11:30:32.000Z,99489
2018-09-21T11:31:32.000Z,99482
2018-09-21T11:33:32.000Z,99487
2018-09-21T11:34:32.000Z,99481
2018-09-21T11:36:32.000Z,99506
2018-09-21T11:37:32.000Z,99494
2018-09-21T11:39:32.000Z,99510
2018-09-21T11:41:32.000Z,99506
2018-09-21T11:43:32.000Z,99498
2018-09-21T11:44:32.000Z,99525
2018-09-21T11:45:32.000Z,99514
2018-09-21T11:47:16.000Z,99514
2018-09-21T11:48:32.000Z,99512
2018-09-21T11:50:32.000Z,99519
2018-09-21T11:52:32.000Z,99523
2018-09-21T11:54:16.000Z,99541
2018-09-21T11:55:32.000Z,99528
2018-09-21T11:57:32.000Z,99534
2018-09-21T11:59:16.000Z,99521
2018-09-21T12:00:32.000Z,99523
2018-09-21T12:01:32.000Z,99527
2018-09-21T12:03:32.000Z,99523
2018-09-21T12:05:32.000Z,99519
2018-09-21T12:07:16.000Z,99521
2018-09-21T12:08:32.000Z,99511
2018-09-21T12:10:32.000Z,99510
2018-09-21T12:12:32.000Z,99511
2018-09-21T12:14:32.000Z,99526
2018-09-21T12:16:31.000Z,99525
2018-09-21T12:18:31.000Z,99532
2018-09-21T12:20:31.000Z,99537
2018-09-21T12:21:31.000Z,99527
2018-09-21T12:22:31.000Z,99530
2018-09-21T12:24:31.000Z,99536
2018-09-21T12:25:31.000Z,99532
2018-09-21T12:27:31.000Z,99547
2018-09-21T12:28:31.000Z,99539
2018-09-21T12:30:31.000Z,99540
2018-09-21T12:32:31.000Z,99543
2018-09-21T12:33:31.000Z,99543
2018-09-21T12:35:31.000Z,99550
2018-09-21T12:37:16.000Z,99547
2018-09-21T12:38:31.000Z,99553
2018-09-21T12:40:01.000Z,99551
2018-09-21T12:41:31.000Z,99559
2018-09-21T12:42:31.000Z,99566
2018-09-21T12:44:31.000Z,99568
2018-09-21T12:45:32.000Z,99563
2018-09-21T12:47:31.000Z,99564
2018-09-21T12:49:31.000Z,99564
2018-09-21T12:50:31.000Z,99568
2018-09-21T12:52:16.000Z,99570
2018-09-21T12:53:31.000Z,99571
2018-09-21T12:55:31.000Z,99572
2018-09-21T12:56:31.000Z,99574
2018-09-21T12:58:31.000Z,99570
2018-09-21T13:00:31.000Z,99574
2018-09-21T13:02:31.000Z,99576
2018-09-21T13:04:31.000Z,99594
2018-09-21T13:05:31.000Z,99588
2018-09-21T13:06:51.000Z,99597
2018-09-21T13:08:51.000Z,99601
2018-09-21T13:10:51.000Z,99598
2018-09-21T13:12:36.000Z,99602
2018-09-21T13:13:51.000Z,99606
2018-09-21T13:15:51.000Z,99609
2018-09-21T13:17:51.000Z,99611
2018-09-21T13:19:51.000Z,99611
2018-09-21T13:20:51.000Z,99606
2018-09-21T13:22:51.000Z,99614
2018-09-21T13:24:36.000Z,99616
2018-09-21T13:25:51.000Z,99611
2018-09-21T13:26:51.000Z,99609
2018-09-21T13:28:51.000Z,99612
2018-09-21T13:30:51.000Z,99616
2018-09-21T13:32:51.000Z,99626
2018-09-21T13:33:51.000Z,99627
2018-09-21T13:35:51.000Z,99644
2018-09-21T13:36:51.000Z,99639
2018-09-21T13:38:51.000Z,99651
2018-09-21T13:39:51.000Z,99647
2018-09-21T13:41:51.000Z,99645
2018-09-21T13:43:51.000Z,99643
2018-09-21T13:45:51.000Z,99637
2018-09-21T13:46:51.000Z,99641
2018-09-21T13:48:51.000Z,99652
2018-09-21T13:49:51.000Z,99658
2018-09-21T13:51:51.000Z,99655
2018-09-21T13:53:51.000Z,99661
2018-09-21T13:55:51.000Z,99655
2018-09-21T13:57:51.000Z,99662
2018-09-21T13:59:51.000Z,99663
2018-09-21T14:01:51.000Z,99663
2018-09-21T14:03:51.000Z,99662
2018-09-21T14:05:51.000Z,99658
2018-09-21T14:07:51.000Z,99678
2018-09-21T14:08:51.000Z,99681
2018-09-21T14:09:51.000Z,99684
2018-09-21T14:11:51.000Z,99673
2018-09-21T14:12:51.000Z,99680
2018-09-21T14:14:51.000Z,99678
2018-09-21T14:16:51.000Z,99683
2018-09-21T14:18:51.000Z,99684
2018-09-21T14:20:51.000Z,99691
2018-09-21T14:21:51.000Z,99693
2018-09-21T14:23:51.000Z,99698
2018-09-21T14:25:51.000Z,99694
2018-09-21T14:27:20.000Z,99693
2018-09-21T14:28:51.000Z,99699
2018-09-21T14:29:51.000Z,99700
2018-09-21T14:31:36.000Z,99694
2018-09-21T14:33:36.000Z,99698
2018-09-21T14:35:51.000Z,99701
2018-09-21T14:36:51.000Z,99698
2018-09-21T14:37:51.000Z,99701
2018-09-21T14:39:51.000Z,99695
2018-09-21T14:41:51.000Z,99701
2018-09-21T14:43:51.000Z,99721
2018-09-21T14:45:51.000Z,99718
2018-09-21T14:46:51.000Z,99724
2018-09-21T14:48:51.000Z,99718
2018-09-21T14:50:35.000Z,99729
2018-09-21T14:51:51.000Z,99731
2018-09-21T14:52:51.000Z,99720
2018-09-21T14:54:35.000Z,99722
2018-09-21T14:55:51.000Z,99732
2018-09-21T14:57:51.000Z,99730
2018-09-21T14:59:51.000Z,99727
2018-09-21T15:01:51.000Z,99749
2018-09-21T15:02:51.000Z,99740
2018-09-21T15:04:51.000Z,99744
2018-09-21T15:05:51.000Z,99749
2018-09-21T15:07:51.000Z,99760
2018-09-21T15:09:35.000Z,99745
2018-09-21T15:10:51.000Z,99757
2018-09-21T15:12:51.000Z,99763
2018-09-21T15:14:51.000Z,99755
2018-09-21T15:15:51.000Z,99747
2018-09-21T15:17:51.000Z,99748
2018-09-21T15:19:51.000Z,99764
2018-09-21T15:21:51.000Z,99760
2018-09-21T15:22:51.000Z,99759
2018-09-21T15:24:51.000Z,99762
2018-09-21T15:25:51.000Z,99774
2018-09-21T15:27:51.000Z,99782
2018-09-21T15:28:51.000Z,99775
2018-09-21T15:30:51.000Z,99777
2018-09-21T15:31:51.000Z,99775
2018-09-21T15:33:51.000Z,99780
2018-09-21T15:35:51.000Z,99784
2018-09-21T15:37:51.000Z,99794
2018-09-21T15:39:51.000Z,99780
2018-09-21T15:40:51.000Z,99786
2018-09-21T15:42:51.000Z,99792
2018-09-21T15:44:51.000Z,99779
2018-09-21T15:46:51.000Z,99783
2018-09-21T15:48:51.000Z,99793
2018-09-21T15:50:51.000Z,99782
2018-09-21T15:52:51.000Z,99788
2018-09-21T15:53:51.000Z,99797
2018-09-21T15:55:51.000Z,99797
2018-09-21T15:56:51.000Z,99802
2018-09-21T15:58:51.000Z,99806
2018-09-21T16:00:51.000Z,99801
2018-09-21T16:01:51.000Z,99816
2018-09-21T16:02:51.000Z,99800
2018-09-21T16:04:51.000Z,99809
2018-09-21T16:06:51.000Z,99815
2018-09-21T16:08:51.000Z,99801
2018-09-21T16:10:51.000Z,99800
2018-09-21T16:11:51.000Z,99807
2018-09-21T16:13:36.000Z,99814
2018-09-21T16:14:51.000Z,99819
2018-09-21T16:16:36.000Z,99817
2018-09-21T16:17:36.000Z,99777
2018-09-21T16:19:35.000Z,99815
2018-09-21T16:20:51.000Z,99815
2018-09-21T16:22:51.000Z,99822
2018-09-21T16:24:51.000Z,99824
2018-09-21T16:25:51.000Z,99815
2018-09-21T16:27:51.000Z,99829
2018-09-21T16:29:51.000Z,99824
2018-09-21T16:31:51.000Z,99829
2018-09-21T16:33:51.000Z,99833
2018-09-21T16:35:51.000Z,99832
2018-09-21T16:37:51.000Z,99833
2018-09-21T16:38:51.000Z,99825
2018-09-21T16:40:51.000Z,99824
2018-09-21T16:42:51.000Z,99824
2018-09-21T16:43:51.000Z,99830
2018-09-21T16:44:51.000Z,99846
2018-09-21T16:45:51.000Z,99834
2018-09-21T16:47:51.000Z,99835
2018-09-21T16:49:51.000Z,99827
2018-09-21T16:51:51.000Z,99841
2018-09-21T16:52:51.000Z,99839
2018-09-21T16:54:51.000Z,99838
2018-09-21T16:56:51.000Z,99834
2018-09-21T16:57:51.000Z,99840
2018-09-21T16:59:51.000Z,99845
2018-09-21T17:00:51.000Z,99844
2018-09-21T17:02:51.000Z,99840
2018-09-21T17:04:51.000Z,99840
2018-09-21T17:06:51.000Z,99840
2018-09-21T17:08:51.000Z,99834
2018-09-21T17:09:51.000Z,99843
2018-09-21T17:10:51.000Z,99846
2018-09-21T17:12:35.000Z,99857
2018-09-21T17:13:51.000Z,99853
2018-09-21T17:15:51.000Z,99867
2018-09-21T17:16:51.000Z,99870
2018-09-21T17:18:51.000Z,99871
2018-09-21T17:20:51.000Z,99877
2018-09-21T17:22:50.000Z,99884
2018-09-21T17:24:50.000Z,99878
2018-09-21T17:25:50.000Z,99885
2018-09-21T17:27:50.000Z,99893
2018-09-21T17:29:50.000Z,99888
2018-09-21T17:31:50.000Z,99893
2018-09-21T17:33:35.000Z,99890
2018-09-21T17:34:50.000Z,99898
2018-09-21T17:36:35.000Z,99896
2018-09-21T17:37:50.000Z,99898
2018-09-21T17:39:35.000Z,99897
2018-09-21T17:40:50.000Z,99909
2018-09-21T17:41:50.000Z,99901
2018-09-21T17:43:50.000Z,99911
2018-09-21T17:45:35.000Z,99913
2018-09-21T17:46:50.000Z,99913
2018-09-21T17:48:35.000Z,99913
2018-09-21T17:49:50.000Z,99925
2018-09-21T17:51:50.000Z,99921
2018-09-21T17:52:50.000Z,99924
2018-09-21T17:54:50.000Z,99919
2018-09-21T17:55:50.000Z,99931
2018-09-21T17:57:35.000Z,99940
2018-09-21T17:58:50.000Z,99933
2018-09-21T17:59:50.000Z,99939
2018-09-21T18:01:50.000Z,99936
2018-09-21T18:03:50.000Z,99942
2018-09-21T18:05:50.000Z,99941
2018-09-21T18:07:50.000Z,99943
2018-09-21T18:08:50.000Z,99947
2018-09-21T18:10:50.000Z,99954
2018-09-21T18:12:50.000Z,99953
2018-09-21T18:14:50.000Z,99963
2018-09-21T18:16:50.000Z,99964
2018-09-21T18:18:35.000Z,99967
2018-09-21T18:19:50.000Z,99968
2018-09-21T18:21:50.000Z,99969
2018-09-21T18:22:50.000Z,99969
2018-09-21T18:24:50.000Z,99972
2018-09-21T18:26:51.000Z,99969
2018-09-21T18:28:51.000Z,99978
2018-09-21T18:30:36.000Z,99966
2018-09-21T18:31:51.000Z,99971
2018-09-21T18:33:51.000Z,99970
2018-09-21T18:35:51.000Z,99967
2018-09-21T18:37:36.000Z,99968
2018-09-21T18:38:51.000Z,99977
2018-09-21T18:40:51.000Z,99986
2018-09-21T18:42:51.000Z,99981
2018-09-21T18:43:51.000Z,99994
2018-09-21T18:45:36.000Z,100014
2018-09-21T18:47:51.000Z,100031
2018-09-21T18:49:51.000Z,100033
2018-09-21T18:51:51.000Z,100044
2018-09-21T18:53:51.000Z,100047
2018-09-21T18:55:51.000Z,100041
2018-09-21T18:56:51.000Z,100046
2018-09-21T18:58:51.000Z,100057
2018-09-21T18:59:51.000Z,100058
2018-09-21T19:01:51.000Z,100054
2018-09-21T19:03:51.000Z,100047
2018-09-21T19:04:51.000Z,100050
2018-09-21T19:06:51.000Z,100050
2018-09-21T19:07:51.000Z,100044
2018-09-21T19:09:51.000Z,100056
2018-09-21T19:11:51.000Z,100060
2018-09-21T19:13:51.000Z,100062
2018-09-21T19:14:51.000Z,100059
2018-09-21T19:16:51.000Z,100058
2018-09-21T19:17:51.000Z,100066
2018-09-21T19:19:51.000Z,100077
2018-09-21T19:20:51.000Z,100074
2018-09-21T19:22:51.000Z,100074
2018-09-21T19:23:51.000Z,100074
2018-09-21T19:25:51.000Z,100072
2018-09-21T19:26:51.000Z,100076
2018-09-21T19:28:51.000Z,100083
2018-09-21T19:30:51.000Z,100086
2018-09-21T19:32:51.000Z,100088
2018-09-21T19:34:51.000Z,100090
2018-09-21T19:35:51.000Z,100088
2018-09-21T19:37:36.000Z,100086
2018-09-21T19:38:51.000Z,100083
2018-09-21T19:39:51.000Z,100085
2018-09-21T19:40:51.000Z,100083
2018-09-21T19:42:51.000Z,100082
2018-09-21T19:43:51.000Z,100086
2018-09-21T19:45:51.000Z,100089
2018-09-21T19:47:36.000Z,100088
2018-09-21T19:48:51.000Z,100102
2018-09-21T19:50:51.000Z,100090
2018-09-21T19:52:51.000Z,100095
2018-09-21T19:54:51.000Z,100095
2018-09-21T19:55:51.000Z,100098
2018-09-21T19:57:51.000Z,100088
2018-09-21T19:59:36.000Z,100093
2018-09-21T20:00:51.000Z,100112
2018-09-21T20:02:51.000Z,100108
2018-09-21T20:04:51.000Z,100092
2018-09-21T20:06:51.000Z,100100
2018-09-21T20:08:51.000Z,100107
2018-09-21T20:10:51.000Z,100104
2018-09-21T20:12:51.000Z,100108
2018-09-21T20:13:51.000Z,100123
2018-09-21T20:15:21.000Z,100124
2018-09-21T20:16:51.000Z,100117
2018-09-21T20:18:51.000Z,100117
2018-09-21T20:19:51.000Z,100122
2018-09-21T20:20:51.000Z,100122
2018-09-21T20:22:51.000Z,100136
2018-09-21T20:23:51.000Z,100132
2018-09-21T20:25:51.000Z,100135
2018-09-21T20:26:51.000Z,100136
2018-09-21T20:28:51.000Z,100142
2018-09-21T20:30:51.000Z,100140
2018-09-21T20:31:51.000Z,100146
2018-09-21T20:33:51.000Z,100143
2018-09-21T20:35:51.000Z,100141
2018-09-21T20:37:36.000Z,100137
2018-09-21T20:38:51.000Z,100132
2018-09-21T20:40:51.000Z,100144
2018-09-21T20:42:21.000Z,100144
2018-09-21T20:43:51.000Z,100147
2018-09-21T20:45:51.000Z,100151
2018-09-21T20:47:51.000Z,100151
2018-09-21T20:48:51.000Z,100143
2018-09-21T20:49:51.000Z,100161
2018-09-21T20:51:51.000Z,100161
2018-09-21T20:53:51.000Z,100158
2018-09-21T20:55:36.000Z,100165
2018-09-21T20:56:51.000Z,100167
2018-09-21T20:57:51.000Z,100159
2018-09-21T20:59:36.000Z,100159
2018-09-21T21:00:51.000Z,100152
2018-09-21T21:02:51.000Z,100163
2018-09-21T21:04:51.000Z,100164
2018-09-21T21:05:51.000Z,100159
2018-09-21T21:07:51.000Z,100168
2018-09-21T21:09:51.000Z,100165
2018-09-21T21:11:51.000Z,100173
2018-09-21T21:13:51.000Z,100148
2018-09-21T21:15:36.000Z,100173
2018-09-21T21:16:51.000Z,100181
2018-09-21T21:18:36.000Z,100167
2018-09-21T21:19:51.000Z,100173
2018-09-21T21:20:51.000Z,100166
2018-09-21T21:22:51.000Z,100179
2018-09-21T21:24:51.000Z,100182
2018-09-21T21:25:51.000Z,100184
2018-09-21T21:27:51.000Z,100184
2018-09-21T21:29:36.000Z,100183
2018-09-21T21:30:51.000Z,100186
2018-09-21T21:32:51.000Z,100186
2018-09-21T21:34:51.000Z,100191
2018-09-21T21:35:51.000Z,100189
2018-09-21T21:36:51.000Z,100193
2018-09-21T21:38:51.000Z,100196
2018-09-21T21:40:51.000Z,100194
2018-09-21T21:41:51.000Z,100219
2018-09-21T21:43:51.000Z,100217
2018-09-21T21:45:51.000Z,100207
2018-09-21T21:47:51.000Z,100217
2018-09-21T21:49:51.000Z,100223
2018-09-21T21:51:51.000Z,100228
2018-09-21T21:53:51.000Z,100227
2018-09-21T21:55:35.000Z,100232
2018-09-21T21:56:51.000Z,100239
2018-09-21T21:58:51.000Z,100243
2018-09-21T22:00:51.000Z,100242
2018-09-21T22:02:51.000Z,100248
2018-09-21T22:04:51.000Z,100256
2018-09-21T22:05:51.000Z,100251
2018-09-21T22:07:51.000Z,100235
2018-09-21T22:09:35.000Z,100242
2018-09-21T22:10:51.000Z,100250
2018-09-21T22:11:51.000Z,100247
2018-09-21T22:12:51.000Z,100249
2018-09-21T22:13:51.000Z,100262
2018-09-21T22:15:50.000Z,100259
2018-09-21T22:17:51.000Z,100269
2018-09-21T22:18:51.000Z,100275
2018-09-21T22:20:51.000Z,100267
2018-09-21T22:21:51.000Z,100273
2018-09-21T22:23:51.000Z,100265